Delta Virtual Airport Information Service

Des Moines International Airport

ICAO: KDSM Country: United States
Latitude: 41.534 Longitude: -93.663
Latest Arrival : DAL4704 (KMSP-KDSM) Latest Departure : DAL4647 (KDSM-KMSP)


WX CaptureLIVE
Data provided by noaa.gov | Fetched at 06:58:22

METAR : KDSM 271127Z 22014KT 9SM FEW027 BKN034 OVC041 M01/M03 A2966 RMK AO2 SNE27 P0000 T10061028

TAF : KDSM 271127Z 22014KT 9SM FEW027 BKN034 OVC041 M01/M03 A2966 RMK AO2 SNE27 P0000 T10061028


Runway Data for KDSM
Data provided by openaviationdata.com

Runway ID Mag Var Hdg Length Elevation Surface ILS Freq ILS Id ILS Slope
5 3 50° 8996 ft 915 ft Asphalt 111.5 IDWW 3
13 3 129° 8996 ft 915 ft Asphalt 111.9 IVGU 3
23 3 230° 8996 ft 915 ft Asphalt -- -- --
31 3 309° 8996 ft 915 ft Asphalt 110.3 IDSM 3

Des Moines International Airport, United States
Use only for reference purposes



Not for navigational purposes.